Time;durP1;ratioP1;P1;durP2;ratioP2;P2;SDS_P1;SDS_P2;PMS_P1;PMS_P2;Temp;Humidity;BMP_temperature;BMP_pressure;BME280_temperature;BME280_humidity;BME280_pressure;Samples;Min_cycle;Max_cycle;Signal;HPM_P1;HPM_P2
2021/12/30 00:01:28;;;;;;;;;;;7.10;85.80;;;;;;5065641;27;87104;-44
2021/12/30 00:03:54;;;;;;;;;;;7.10;85.60;;;;;;5065500;27;88383;-45
2021/12/30 00:06:22;;;;;;;;;;;7.10;85.70;;;;;;5065016;27;88203;-45
2021/12/30 00:08:49;;;;;;;;;;;7.10;85.50;;;;;;5065480;27;87017;-45
2021/12/30 00:11:14;;;;;;;;;;;7.10;85.50;;;;;;5065866;27;88996;-46
2021/12/30 00:13:44;;;;;;;;;;;7.10;85.50;;;;;;5065217;27;89320;-45
2021/12/30 00:16:13;;;;;;;;;;;7.10;85.50;;;;;;5068354;27;87090;-46
2021/12/30 00:18:39;;;;;;;;;;;7.10;85.50;;;;;;5064235;27;90624;-45
2021/12/30 00:21:05;;;;;;;;;;;7.10;85.40;;;;;;5065098;27;87140;-44
2021/12/30 00:23:30;;;;;;;;;;;7.10;85.50;;;;;;5065301;27;88435;-44
2021/12/30 00:25:56;;;;;;;;;;;7.10;85.40;;;;;;5065037;27;87967;-45
2021/12/30 00:28:22;;;;;;;;;;;7.10;85.40;;;;;;5065128;27;87217;-45
2021/12/30 00:30:48;;;;;;;;;;;7.10;85.30;;;;;;5065352;27;87292;-44
2021/12/30 00:33:14;;;;;;;;;;;7.10;85.30;;;;;;5064461;27;89673;-44
2021/12/30 00:35:39;;;;;;;;;;;7.10;85.30;;;;;;5068287;27;86203;-45
2021/12/30 00:38:05;;;;;;;;;;;7.10;85.40;;;;;;5064685;27;89722;-45
2021/12/30 00:40:31;;;;;;;;;;;7.00;85.30;;;;;;5065374;27;86715;-45
2021/12/30 00:42:59;;;;;;;;;;;7.10;85.30;;;;;;5064284;27;88777;-44
2021/12/30 00:45:25;;;;;;;;;;;7.00;85.30;;;;;;5064378;27;89792;-44
2021/12/30 00:47:51;;;;;;;;;;;7.00;85.30;;;;;;5065060;27;87107;-45
2021/12/30 00:50:17;;;;;;;;;;;7.00;85.20;;;;;;5064195;27;89188;-45
2021/12/30 00:52:42;;;;;;;;;;;7.00;85.30;;;;;;5064293;27;89633;-44
2021/12/30 00:55:08;;;;;;;;;;;7.00;85.20;;;;;;5064865;27;87167;-44
2021/12/30 00:57:33;;;;;;;;;;;7.00;85.50;;;;;;5067172;27;87719;-45
2021/12/30 00:59:59;;;;;;;;;;;7.00;85.50;;;;;;5064997;27;86419;-44
2021/12/30 01:02:25;;;;;;;;;;;7.00;85.50;;;;;;5064436;27;87251;-45
2021/12/30 01:04:50;;;;;;;;;;;7.00;85.50;;;;;;5064012;27;89675;-44
2021/12/30 01:07:16;;;;;;;;;;;7.00;85.40;;;;;;5063940;27;88157;-44
2021/12/30 01:09:41;;;;;;;;;;;7.00;85.50;;;;;;5064478;27;90089;-44
2021/12/30 01:12:07;;;;;;;;;;;6.90;85.40;;;;;;5064137;27;89614;-44
2021/12/30 01:14:35;;;;;;;;;;;7.00;85.30;;;;;;5064344;27;86849;-44
2021/12/30 01:17:13;;;;;;;;;;;6.90;85.30;;;;;;5064282;27;88096;-44
2021/12/30 01:19:42;;;;;;;;;;;6.90;85.40;;;;;;5066917;27;88004;-45
2021/12/30 01:22:21;;;;;;;;;;;6.90;85.40;;;;;;5064294;27;88898;-44
2021/12/30 01:24:47;;;;;;;;;;;6.90;85.20;;;;;;5064387;27;87289;-44
2021/12/30 01:27:13;;;;;;;;;;;6.90;85.20;;;;;;5064046;27;87114;-44
2021/12/30 01:29:38;;;;;;;;;;;6.90;85.40;;;;;;5064014;27;89176;-45
2021/12/30 01:32:04;;;;;;;;;;;6.90;85.30;;;;;;5062838;27;90447;-44
2021/12/30 01:34:30;;;;;;;;;;;7.00;85.20;;;;;;5064224;27;86731;-44
2021/12/30 01:36:55;;;;;;;;;;;6.90;85.20;;;;;;5064046;27;89028;-44
2021/12/30 01:39:22;;;;;;;;;;;6.90;85.20;;;;;;5063979;27;86956;-45
2021/12/30 01:41:49;;;;;;;;;;;6.90;85.20;;;;;;5067061;27;87014;-45
2021/12/30 01:44:14;;;;;;;;;;;6.90;85.20;;;;;;5063651;27;89536;-45
2021/12/30 01:46:41;;;;;;;;;;;7.00;85.10;;;;;;5063270;27;86943;-44
2021/12/30 01:49:09;;;;;;;;;;;6.90;85.00;;;;;;5064519;27;86872;-45
2021/12/30 01:51:35;;;;;;;;;;;6.90;85.10;;;;;;5062747;27;89422;-44
2021/12/30 01:54:01;;;;;;;;;;;6.90;85.20;;;;;;5063771;27;87132;-45
2021/12/30 01:56:26;;;;;;;;;;;6.90;85.20;;;;;;5063236;27;89007;-45
2021/12/30 01:58:53;;;;;;;;;;;6.90;85.10;;;;;;5063457;27;89319;-45
2021/12/30 02:01:19;;;;;;;;;;;6.90;85.40;;;;;;5063706;27;87499;-44
2021/12/30 02:03:45;;;;;;;;;;;6.90;85.00;;;;;;5066191;27;89142;-44
2021/12/30 02:06:11;;;;;;;;;;;6.90;85.20;;;;;;5063664;27;87105;-44
2021/12/30 02:08:36;;;;;;;;;;;6.80;85.30;;;;;;5063657;27;88751;-45
2021/12/30 02:11:02;;;;;;;;;;;6.80;85.40;;;;;;5063266;27;89510;-44
2021/12/30 02:13:27;;;;;;;;;;;6.80;85.20;;;;;;5064214;27;86495;-44
2021/12/30 02:16:00;;;;;;;;;;;6.80;85.40;;;;;;5063784;27;86850;-45
2021/12/30 02:18:25;;;;;;;;;;;6.80;85.10;;;;;;5063302;27;89311;-45
2021/12/30 02:20:52;;;;;;;;;;;6.80;85.10;;;;;;5062816;27;88099;-44
2021/12/30 02:23:19;;;;;;;;;;;6.80;85.30;;;;;;5065993;27;89821;-44
2021/12/30 02:25:47;;;;;;;;;;;6.80;85.20;;;;;;5063450;27;87113;-45
2021/12/30 02:28:14;;;;;;;;;;;6.80;85.10;;;;;;5063386;27;88946;-44
2021/12/30 02:30:40;;;;;;;;;;;6.80;85.10;;;;;;5062667;27;90327;-44
2021/12/30 02:33:06;;;;;;;;;;;6.80;85.10;;;;;;5063194;27;87025;-44
2021/12/30 02:35:32;;;;;;;;;;;6.80;85.10;;;;;;5063436;27;87706;-44
2021/12/30 02:37:58;;;;;;;;;;;6.80;85.10;;;;;;5063484;27;88007;-44
2021/12/30 02:40:25;;;;;;;;;;;6.80;85.10;;;;;;5063269;27;87143;-45
2021/12/30 02:42:50;;;;;;;;;;;6.80;85.10;;;;;;5063201;27;88845;-45
2021/12/30 02:45:16;;;;;;;;;;;6.80;85.00;;;;;;5065034;27;89094;-45
2021/12/30 02:47:41;;;;;;;;;;;6.80;85.10;;;;;;5063116;27;89669;-45
2021/12/30 02:50:07;;;;;;;;;;;6.80;85.10;;;;;;5062822;27;89507;-44
2021/12/30 02:52:32;;;;;;;;;;;6.80;85.10;;;;;;5062745;27;87150;-44
2021/12/30 02:54:58;;;;;;;;;;;6.80;85.10;;;;;;5063004;27;87795;-45
2021/12/30 02:57:27;;;;;;;;;;;6.70;85.00;;;;;;5065107;27;89633;-44
2021/12/30 02:59:52;;;;;;;;;;;6.70;85.00;;;;;;5066369;27;87178;-44
2021/12/30 03:02:18;;;;;;;;;;;6.70;85.10;;;;;;5066909;27;88678;-44
2021/12/30 03:04:43;;;;;;;;;;;6.70;84.90;;;;;;5066105;27;90117;-45
2021/12/30 03:07:09;;;;;;;;;;;6.70;84.90;;;;;;5069343;27;87163;-44
2021/12/30 03:09:34;;;;;;;;;;;6.70;85.00;;;;;;5065543;27;88950;-45
2021/12/30 03:12:00;;;;;;;;;;;6.70;85.10;;;;;;5066159;27;87123;-44
2021/12/30 03:14:26;;;;;;;;;;;6.70;85.20;;;;;;5066255;27;88754;-45
2021/12/30 03:16:52;;;;;;;;;;;6.70;85.00;;;;;;5065827;27;88052;-45
2021/12/30 03:19:18;;;;;;;;;;;6.70;85.00;;;;;;5066202;27;87007;-44
2021/12/30 03:21:43;;;;;;;;;;;6.70;85.00;;;;;;5066165;27;88738;-44
2021/12/30 03:24:09;;;;;;;;;;;6.70;85.10;;;;;;5065757;27;89469;-45
2021/12/30 03:26:35;;;;;;;;;;;6.70;85.10;;;;;;5066415;27;86486;-45
2021/12/30 03:29:01;;;;;;;;;;;6.70;84.90;;;;;;5068654;27;88219;-45
2021/12/30 03:31:27;;;;;;;;;;;6.70;84.80;;;;;;5065934;27;87139;-45
2021/12/30 03:33:52;;;;;;;;;;;6.70;85.00;;;;;;5065438;27;88776;-44
2021/12/30 03:36:18;;;;;;;;;;;6.70;85.20;;;;;;5065837;27;89676;-45
2021/12/30 03:38:45;;;;;;;;;;;6.60;85.10;;;;;;5065950;27;87028;-45
2021/12/30 03:41:11;;;;;;;;;;;6.60;85.00;;;;;;5065878;27;88293;-45
2021/12/30 03:43:37;;;;;;;;;;;6.70;85.00;;;;;;5065486;27;90576;-45
2021/12/30 03:46:04;;;;;;;;;;;6.70;84.90;;;;;;5065647;27;87242;-45
2021/12/30 03:48:34;;;;;;;;;;;6.60;84.70;;;;;;5065798;27;88586;-44
2021/12/30 03:51:06;;;;;;;;;;;6.60;84.80;;;;;;5068234;27;89740;-45
2021/12/30 03:53:38;;;;;;;;;;;6.60;84.90;;;;;;5065899;27;87023;-45
2021/12/30 03:56:05;;;;;;;;;;;6.60;84.80;;;;;;5065390;27;89611;-45
2021/12/30 03:58:30;;;;;;;;;;;6.60;84.70;;;;;;5064810;27;88171;-45
2021/12/30 04:00:56;;;;;;;;;;;6.60;84.60;;;;;;5065696;27;89047;-44
2021/12/30 04:03:21;;;;;;;;;;;6.60;84.70;;;;;;5065434;27;88224;-45
2021/12/30 04:05:47;;;;;;;;;;;6.60;84.80;;;;;;5065411;27;87250;-45
2021/12/30 04:08:12;;;;;;;;;;;6.60;84.70;;;;;;5064833;27;89006;-45
2021/12/30 04:10:38;;;;;;;;;;;6.50;84.70;;;;;;5065108;27;88536;-45
2021/12/30 04:13:04;;;;;;;;;;;6.60;84.80;;;;;;5049775;27;87204;-44
2021/12/30 04:15:29;;;;;;;;;;;6.60;84.80;;;;;;5065468;27;88650;-45
2021/12/30 04:17:55;;;;;;;;;;;6.60;84.70;;;;;;5065165;27;87039;-44
2021/12/30 04:20:20;;;;;;;;;;;6.50;85.00;;;;;;5065448;27;89605;-44
2021/12/30 04:22:46;;;;;;;;;;;6.50;85.00;;;;;;5063956;27;90928;-45
2021/12/30 04:25:12;;;;;;;;;;;6.50;84.90;;;;;;5064920;27;87142;-44
2021/12/30 04:27:38;;;;;;;;;;;6.50;85.10;;;;;;5064724;27;88955;-45
2021/12/30 04:30:05;;;;;;;;;;;6.50;84.90;;;;;;5064597;27;89974;-45
2021/12/30 04:32:30;;;;;;;;;;;6.50;85.00;;;;;;5067980;27;86864;-45
2021/12/30 04:34:56;;;;;;;;;;;6.50;85.00;;;;;;5064947;27;88271;-45
2021/12/30 04:37:21;;;;;;;;;;;6.50;85.00;;;;;;5064979;27;87240;-44
2021/12/30 04:39:47;;;;;;;;;;;6.50;85.00;;;;;;5065332;27;89022;-45
2021/12/30 04:42:13;;;;;;;;;;;6.50;84.80;;;;;;5064511;27;89829;-45
2021/12/30 04:44:39;;;;;;;;;;;6.50;84.60;;;;;;5064686;27;87309;-45
2021/12/30 04:47:05;;;;;;;;;;;6.50;84.60;;;;;;5064422;27;87836;-44
2021/12/30 04:49:30;;;;;;;;;;;6.50;84.60;;;;;;5064462;27;89169;-44
2021/12/30 04:51:56;;;;;;;;;;;6.50;84.50;;;;;;5064287;27;87175;-45
2021/12/30 04:54:21;;;;;;;;;;;6.50;84.70;;;;;;5067455;27;87864;-45
2021/12/30 04:56:47;;;;;;;;;;;6.50;84.60;;;;;;5064674;27;86877;-45
2021/12/30 04:59:13;;;;;;;;;;;6.50;84.70;;;;;;5064369;27;88715;-45
2021/12/30 05:01:39;;;;;;;;;;;6.50;84.80;;;;;;5064446;27;87619;-44
2021/12/30 05:04:05;;;;;;;;;;;6.50;84.80;;;;;;5046992;27;86379;-45
2021/12/30 05:06:32;;;;;;;;;;;6.50;84.90;;;;;;5064625;27;88139;-45
2021/12/30 05:08:58;;;;;;;;;;;6.50;84.90;;;;;;5064221;27;89545;-45
2021/12/30 05:11:24;;;;;;;;;;;6.40;85.10;;;;;;5063891;27;88014;-45
2021/12/30 05:13:49;;;;;;;;;;;6.50;84.90;;;;;;5064132;27;88964;-45
2021/12/30 05:16:16;;;;;;;;;;;6.40;84.90;;;;;;5067056;27;88733;-45
2021/12/30 05:18:41;;;;;;;;;;;6.40;85.00;;;;;;5064419;27;88861;-44
2021/12/30 05:21:07;;;;;;;;;;;6.40;84.90;;;;;;5062705;27;89827;-45
2021/12/30 05:23:33;;;;;;;;;;;6.50;84.70;;;;;;5064305;27;87242;-45
2021/12/30 05:25:58;;;;;;;;;;;6.50;84.50;;;;;;5063985;27;88978;-45
2021/12/30 05:28:24;;;;;;;;;;;6.50;84.60;;;;;;5064194;27;89095;-45
2021/12/30 05:30:50;;;;;;;;;;;6.50;84.60;;;;;;5064055;27;86854;-45
2021/12/30 05:33:15;;;;;;;;;;;6.40;84.60;;;;;;5064135;27;87148;-45
2021/12/30 05:35:41;;;;;;;;;;;6.50;84.60;;;;;;5044808;27;92186;-45
2021/12/30 05:38:07;;;;;;;;;;;6.40;85.20;;;;;;5067244;27;87134;-44
2021/12/30 05:40:33;;;;;;;;;;;6.50;84.60;;;;;;5063833;27;88025;-44
2021/12/30 05:43:00;;;;;;;;;;;6.40;84.50;;;;;;5063860;27;87101;-45
2021/12/30 05:45:26;;;;;;;;;;;6.50;85.00;;;;;;5063762;27;88749;-46
2021/12/30 05:47:52;;;;;;;;;;;6.40;84.40;;;;;;5063391;27;89718;-45
2021/12/30 05:50:19;;;;;;;;;;;6.50;84.40;;;;;;5063398;27;87138;-45
2021/12/30 05:52:45;;;;;;;;;;;6.40;84.60;;;;;;5064363;27;89019;-45
2021/12/30 05:55:11;;;;;;;;;;;6.40;84.80;;;;;;5063536;27;89742;-45
2021/12/30 05:57:37;;;;;;;;;;;6.40;84.50;;;;;;5063686;27;87126;-45
2021/12/30 06:00:04;;;;;;;;;;;6.40;84.60;;;;;;5065583;27;88936;-45
2021/12/30 06:02:30;;;;;;;;;;;6.40;84.80;;;;;;5063786;27;87792;-45
2021/12/30 06:04:55;;;;;;;;;;;6.40;84.70;;;;;;5063765;27;87289;-45
2021/12/30 06:07:21;;;;;;;;;;;6.40;84.50;;;;;;5063260;27;89546;-45
2021/12/30 06:09:46;;;;;;;;;;;6.40;84.50;;;;;;5063969;27;87160;-45
2021/12/30 06:12:12;;;;;;;;;;;6.40;84.40;;;;;;5063250;27;88949;-45
2021/12/30 06:14:37;;;;;;;;;;;6.40;84.40;;;;;;5063488;27;89899;-45
2021/12/30 06:17:03;;;;;;;;;;;6.40;84.60;;;;;;5064019;27;86473;-45
2021/12/30 06:19:29;;;;;;;;;;;6.30;84.50;;;;;;5063511;27;88769;-45
2021/12/30 06:21:54;;;;;;;;;;;6.30;84.70;;;;;;5065902;27;89585;-45
2021/12/30 06:24:20;;;;;;;;;;;6.30;84.70;;;;;;5062682;27;88993;-45
2021/12/30 06:26:45;;;;;;;;;;;6.40;84.70;;;;;;5062983;27;88535;-45
2021/12/30 06:29:11;;;;;;;;;;;6.30;84.40;;;;;;5063575;27;87159;-45
2021/12/30 06:31:39;;;;;;;;;;;6.30;84.50;;;;;;5064657;27;89014;-45
2021/12/30 06:34:04;;;;;;;;;;;6.40;84.30;;;;;;5066745;27;88115;-45
2021/12/30 06:36:30;;;;;;;;;;;6.40;84.40;;;;;;5066873;27;87301;-45
2021/12/30 06:38:55;;;;;;;;;;;6.30;84.40;;;;;;5067054;27;87397;-45
2021/12/30 06:41:21;;;;;;;;;;;6.30;84.50;;;;;;5070164;27;87416;-44
2021/12/30 06:43:47;;;;;;;;;;;6.30;84.40;;;;;;5066888;27;88591;-45
2021/12/30 06:46:12;;;;;;;;;;;6.30;84.30;;;;;;5066308;27;89342;-44
2021/12/30 06:48:38;;;;;;;;;;;6.30;84.40;;;;;;5066054;27;87928;-45
2021/12/30 06:51:05;;;;;;;;;;;6.30;84.40;;;;;;5065930;27;90153;-45
2021/12/30 06:53:31;;;;;;;;;;;6.30;84.40;;;;;;5066501;27;89427;-45
2021/12/30 06:55:58;;;;;;;;;;;6.30;84.40;;;;;;5066450;27;87102;-45
2021/12/30 06:58:23;;;;;;;;;;;6.30;84.20;;;;;;5066496;27;88922;-45
2021/12/30 07:00:49;;;;;;;;;;;6.30;84.00;;;;;;5066140;27;89786;-45
2021/12/30 07:03:15;;;;;;;;;;;6.30;84.10;;;;;;5069339;27;86925;-44
2021/12/30 07:05:41;;;;;;;;;;;6.30;84.20;;;;;;5066537;27;89115;-45
2021/12/30 07:08:07;;;;;;;;;;;6.30;84.30;;;;;;5066365;27;87238;-44
2021/12/30 07:10:32;;;;;;;;;;;6.30;84.30;;;;;;5066416;27;88944;-45
2021/12/30 07:12:58;;;;;;;;;;;6.20;84.30;;;;;;5065184;27;89107;-44
2021/12/30 07:15:23;;;;;;;;;;;6.30;84.30;;;;;;5066300;27;87262;-44
2021/12/30 07:17:49;;;;;;;;;;;6.30;84.10;;;;;;5066594;27;89374;-44
2021/12/30 07:20:15;;;;;;;;;;;6.30;84.20;;;;;;5065862;27;89449;-45
2021/12/30 07:22:40;;;;;;;;;;;6.30;84.10;;;;;;5066220;27;86802;-45
2021/12/30 07:25:07;;;;;;;;;;;6.30;84.20;;;;;;5068889;27;86807;-44
2021/12/30 07:27:32;;;;;;;;;;;6.20;84.20;;;;;;5065916;27;87219;-45
2021/12/30 07:29:59;;;;;;;;;;;6.20;84.10;;;;;;5066460;27;88918;-45
2021/12/30 07:32:25;;;;;;;;;;;6.30;84.20;;;;;;5065683;27;88357;-45
2021/12/30 07:34:50;;;;;;;;;;;6.30;84.00;;;;;;5066375;27;87069;-45
2021/12/30 07:37:16;;;;;;;;;;;6.20;84.10;;;;;;5065213;27;89336;-45
2021/12/30 07:39:42;;;;;;;;;;;6.20;84.20;;;;;;5065528;27;89544;-45
2021/12/30 07:42:07;;;;;;;;;;;6.20;84.20;;;;;;5065665;27;87265;-45
2021/12/30 07:44:33;;;;;;;;;;;6.20;84.20;;;;;;5065068;27;89047;-44
2021/12/30 07:46:58;;;;;;;;;;;6.20;84.30;;;;;;5068556;27;90129;-44
2021/12/30 07:49:24;;;;;;;;;;;6.20;84.30;;;;;;5065824;27;88333;-45
2021/12/30 07:51:49;;;;;;;;;;;6.20;84.20;;;;;;5064780;27;88645;-45
2021/12/30 07:54:15;;;;;;;;;;;6.20;84.30;;;;;;5066472;27;86377;-45
2021/12/30 07:56:41;;;;;;;;;;;6.20;84.20;;;;;;5065621;27;87275;-45
2021/12/30 07:59:06;;;;;;;;;;;6.20;84.30;;;;;;5065625;27;89629;-45
2021/12/30 08:01:32;;;;;;;;;;;6.20;84.20;;;;;;5065072;27;88067;-47
2021/12/30 08:03:57;;;;;;;;;;;6.10;84.10;;;;;;5065449;27;88409;-45
2021/12/30 08:06:26;;;;;;;;;;;6.10;84.10;;;;;;5065191;27;89811;-44
2021/12/30 08:08:52;;;;;;;;;;;6.10;84.20;;;;;;5068375;27;86986;-44
2021/12/30 08:11:17;;;;;;;;;;;6.10;84.30;;;;;;5064970;27;88589;-45
2021/12/30 08:13:43;;;;;;;;;;;6.10;84.00;;;;;;5065348;27;87116;-45
2021/12/30 08:16:08;;;;;;;;;;;6.10;84.00;;;;;;5065430;27;87923;-45
2021/12/30 08:18:34;;;;;;;;;;;6.10;84.00;;;;;;5065796;27;87207;-45
2021/12/30 08:20:59;;;;;;;;;;;6.10;84.00;;;;;;5065258;27;87103;-45
2021/12/30 08:23:25;;;;;;;;;;;6.10;84.10;;;;;;5065368;27;88028;-45
2021/12/30 08:25:51;;;;;;;;;;;6.10;84.10;;;;;;5064038;27;90458;-45
2021/12/30 08:28:18;;;;;;;;;;;6.10;84.20;;;;;;5065029;27;87054;-45
2021/12/30 08:30:43;;;;;;;;;;;6.10;84.00;;;;;;5067825;27;88857;-45
2021/12/30 08:33:09;;;;;;;;;;;6.10;84.00;;;;;;5065143;27;87109;-45
2021/12/30 08:35:35;;;;;;;;;;;6.10;84.00;;;;;;5064861;27;88967;-45
2021/12/30 08:38:00;;;;;;;;;;;6.10;84.10;;;;;;5064665;27;89578;-44
2021/12/30 08:40:26;;;;;;;;;;;6.10;84.00;;;;;;5064884;27;87135;-45
2021/12/30 08:42:52;;;;;;;;;;;6.10;84.00;;;;;;5064992;27;88849;-44
2021/12/30 08:45:18;;;;;;;;;;;6.10;83.90;;;;;;5064755;27;87876;-45
2021/12/30 08:47:43;;;;;;;;;;;6.10;83.90;;;;;;5065130;27;87104;-45
2021/12/30 08:50:10;;;;;;;;;;;6.10;84.00;;;;;;5066845;27;87836;-45
2021/12/30 08:52:36;;;;;;;;;;;6.10;84.00;;;;;;5064574;27;87308;-45
2021/12/30 08:55:04;;;;;;;;;;;6.10;84.10;;;;;;5064423;27;88269;-45
2021/12/30 08:57:30;;;;;;;;;;;6.00;84.00;;;;;;5064076;27;89874;-45
2021/12/30 08:59:55;;;;;;;;;;;6.10;84.00;;;;;;5064615;27;87039;-45
2021/12/30 09:02:21;;;;;;;;;;;6.10;83.90;;;;;;5064455;27;89295;-45
2021/12/30 09:04:47;;;;;;;;;;;6.10;84.00;;;;;;5064483;27;88203;-44
2021/12/30 09:07:14;;;;;;;;;;;6.00;84.00;;;;;;5064924;27;86292;-45
2021/12/30 09:09:40;;;;;;;;;;;6.00;84.00;;;;;;5064595;27;88187;-45
2021/12/30 09:12:06;;;;;;;;;;;6.10;84.00;;;;;;5066747;27;88577;-45
2021/12/30 09:14:31;;;;;;;;;;;6.10;83.80;;;;;;5063961;27;87975;-45
2021/12/30 09:16:57;;;;;;;;;;;6.00;83.90;;;;;;5064159;27;90005;-45
2021/12/30 09:19:22;;;;;;;;;;;6.00;83.90;;;;;;5064256;27;87139;-45
2021/12/30 09:21:48;;;;;;;;;;;6.00;84.00;;;;;;5064327;27;88747;-45
2021/12/30 09:24:13;;;;;;;;;;;6.00;84.00;;;;;;5063930;27;90334;-45
2021/12/30 09:26:39;;;;;;;;;;;6.00;84.10;;;;;;5064301;27;87156;-45
2021/12/30 09:29:10;;;;;;;;;;;6.00;84.00;;;;;;5064230;27;87994;-45
2021/12/30 09:31:37;;;;;;;;;;;6.00;83.80;;;;;;5064462;27;88673;-45
2021/12/30 09:34:03;;;;;;;;;;;6.00;83.80;;;;;;5067325;27;87002;-45
2021/12/30 09:36:30;;;;;;;;;;;6.00;84.00;;;;;;5063692;27;89877;-44
2021/12/30 09:38:55;;;;;;;;;;;6.00;83.80;;;;;;5063415;27;87822;-45
2021/12/30 09:41:21;;;;;;;;;;;6.00;83.80;;;;;;5063692;27;89887;-44
2021/12/30 09:43:47;;;;;;;;;;;6.00;83.80;;;;;;5063788;27;89692;-44
2021/12/30 09:46:12;;;;;;;;;;;6.00;83.70;;;;;;5063758;27;87030;-45
2021/12/30 09:48:38;;;;;;;;;;;6.00;83.80;;;;;;5063885;27;88775;-44
2021/12/30 09:51:06;;;;;;;;;;;5.90;84.00;;;;;;5063199;27;88259;-45
2021/12/30 09:53:32;;;;;;;;;;;6.00;84.00;;;;;;5063954;27;87106;-45
2021/12/30 09:55:59;;;;;;;;;;;5.90;84.10;;;;;;5066801;27;88980;-45
2021/12/30 09:58:26;;;;;;;;;;;6.00;84.00;;;;;;5063937;27;87109;-45
2021/12/30 10:00:51;;;;;;;;;;;5.90;83.90;;;;;;5063926;27;88703;-45
2021/12/30 10:03:17;;;;;;;;;;;6.00;83.90;;;;;;5062630;27;90584;-44
2021/12/30 10:05:42;;;;;;;;;;;6.00;83.90;;;;;;5063020;27;87221;-45
2021/12/30 10:08:23;;;;;;;;;;;6.00;83.90;;;;;;5063903;27;87693;-44
2021/12/30 10:10:51;;;;;;;;;;;6.00;83.90;;;;;;5063064;27;89770;-45
2021/12/30 10:13:20;;;;;;;;;;;6.00;83.90;;;;;;5063624;27;87095;-44
2021/12/30 10:15:47;;;;;;;;;;;5.90;83.80;;;;;;5063611;27;87839;-44
2021/12/30 10:18:13;;;;;;;;;;;6.00;83.90;;;;;;5066049;27;88669;-45
2021/12/30 10:20:40;;;;;;;;;;;5.90;84.10;;;;;;5064089;27;87810;-45
2021/12/30 10:23:17;;;;;;;;;;;5.90;84.30;;;;;;5063024;27;89385;-45
2021/12/30 10:25:44;;;;;;;;;;;5.90;84.20;;;;;;5063376;27;87138;-45
2021/12/30 10:28:22;;;;;;;;;;;5.80;84.30;;;;;;5062865;27;88833;-45
2021/12/30 10:30:48;;;;;;;;;;;5.80;84.40;;;;;;5062867;27;89385;-45
2021/12/30 10:33:29;;;;;;;;;;;5.90;84.40;;;;;;5063358;27;87145;-45
2021/12/30 10:35:55;;;;;;;;;;;5.90;84.10;;;;;;5063452;27;87161;-45
2021/12/30 10:38:22;;;;;;;;;;;5.90;84.20;;;;;;5063159;27;89589;-44
2021/12/30 10:40:50;;;;;;;;;;;5.90;84.00;;;;;;5066146;27;87025;-45
2021/12/30 10:43:25;;;;;;;;;;;5.90;83.90;;;;;;5062971;27;89390;-45
2021/12/30 10:46:01;;;;;;;;;;;5.90;83.90;;;;;;5063527;27;87149;-45
2021/12/30 10:48:26;;;;;;;;;;;5.90;84.00;;;;;;5062992;27;88341;-45
2021/12/30 10:51:07;;;;;;;;;;;5.80;83.90;;;;;;5062358;27;89800;-44
2021/12/30 10:53:35;;;;;;;;;;;5.90;83.70;;;;;;5062532;27;87750;-44
2021/12/30 10:56:17;;;;;;;;;;;5.90;83.80;;;;;;5063211;27;88321;-44
2021/12/30 10:58:43;;;;;;;;;;;5.80;83.90;;;;;;5062591;27;89574;-44
2021/12/30 11:01:15;;;;;;;;;;;5.80;83.90;;;;;;5066206;27;87061;-44
2021/12/30 11:03:42;;;;;;;;;;;5.90;83.70;;;;;;5062652;27;89628;-45
2021/12/30 11:06:11;;;;;;;;;;;5.80;83.80;;;;;;5063075;27;87008;-45
2021/12/30 11:08:37;;;;;;;;;;;5.90;83.60;;;;;;5062892;27;88845;-45
2021/12/30 11:11:21;;;;;;;;;;;5.80;83.70;;;;;;5063153;27;87407;-44
2021/12/30 11:13:57;;;;;;;;;;;5.90;83.60;;;;;;5062774;27;87093;-45
2021/12/30 11:16:22;;;;;;;;;;;5.90;83.60;;;;;;5062773;27;88941;-45
2021/12/30 11:18:48;;;;;;;;;;;5.90;83.60;;;;;;5063280;27;89646;-45
2021/12/30 11:21:33;;;;;;;;;;;5.90;83.50;;;;;;5066511;27;86794;-44
2021/12/30 11:23:59;;;;;;;;;;;5.90;83.60;;;;;;5068528;27;88746;-45
2021/12/30 11:26:25;;;;;;;;;;;5.90;83.70;;;;;;5066103;27;87117;-45
2021/12/30 11:28:50;;;;;;;;;;;5.90;83.60;;;;;;5066022;27;88977;-44
2021/12/30 11:31:16;;;;;;;;;;;5.80;83.60;;;;;;5065590;27;89391;-44
2021/12/30 11:33:41;;;;;;;;;;;5.80;83.80;;;;;;5066049;27;87060;-44
2021/12/30 11:36:07;;;;;;;;;;;5.80;84.00;;;;;;5066745;27;87329;-44
2021/12/30 11:38:32;;;;;;;;;;;5.80;83.90;;;;;;5065692;27;88086;-44
2021/12/30 11:40:58;;;;;;;;;;;5.80;83.90;;;;;;5066028;27;87137;-44
2021/12/30 11:43:40;;;;;;;;;;;5.80;84.00;;;;;;5065514;27;88033;-44
2021/12/30 11:46:05;;;;;;;;;;;5.80;83.90;;;;;;5068351;27;89708;-45
2021/12/30 11:48:38;;;;;;;;;;;5.80;83.90;;;;;;5066214;27;86886;-45
2021/12/30 11:51:06;;;;;;;;;;;5.80;83.70;;;;;;5064621;27;89421;-45
2021/12/30 11:53:31;;;;;;;;;;;5.80;84.00;;;;;;5065970;27;87058;-45
2021/12/30 11:56:00;;;;;;;;;;;5.70;83.90;;;;;;5065821;27;87582;-44
2021/12/30 12:01:12;;;;;;;;;;;5.80;83.80;;;;;;5066328;27;86443;-45
2021/12/30 12:03:39;;;;;;;;;;;5.80;83.70;;;;;;5065652;27;88131;-44
2021/12/30 12:06:25;;;;;;;;;;;5.80;83.60;;;;;;5064953;27;88030;-45
2021/12/30 12:08:51;;;;;;;;;;;5.80;83.60;;;;;;5067906;27;88086;-44
2021/12/30 12:11:17;;;;;;;;;;;5.80;83.50;;;;;;5065050;27;89535;-44
2021/12/30 12:13:44;;;;;;;;;;;5.80;83.50;;;;;;5065509;27;87103;-44
2021/12/30 12:16:10;;;;;;;;;;;5.80;83.60;;;;;;5065211;27;87972;-45
2021/12/30 12:18:35;;;;;;;;;;;5.80;83.50;;;;;;5064958;27;89545;-45
2021/12/30 12:21:02;;;;;;;;;;;5.80;83.60;;;;;;5065325;27;87095;-45
2021/12/30 12:23:38;;;;;;;;;;;5.80;83.50;;;;;;5065205;27;89169;-45
2021/12/30 12:26:11;;;;;;;;;;;5.80;83.40;;;;;;5065134;27;89136;-45
2021/12/30 12:28:37;;;;;;;;;;;5.80;83.60;;;;;;5064792;27;87139;-45
2021/12/30 12:31:03;;;;;;;;;;;5.80;83.60;;;;;;5067493;27;87645;-45
2021/12/30 12:33:32;;;;;;;;;;;5.70;84.20;;;;;;5064321;27;88069;-44
2021/12/30 12:35:58;;;;;;;;;;;5.80;82.90;;;;;;5065194;27;89991;-41
2021/12/30 12:38:43;;;;;;;;;;;5.80;81.80;;;;;;5064531;27;89657;-41
2021/12/30 12:42:48;;;;;;;;;;;5.70;79.00;;;;;;5045900;27;80225;-42
2021/12/30 12:45:14;;;;;;;;;;;5.80;80.30;;;;;;5044808;28;80290;-45
2021/12/30 12:47:40;;;;;;;;;;;5.70;80.10;;;;;;5044945;27;82767;-43
2021/12/30 12:50:06;;;;;;;;;;;5.70;80.50;;;;;;5042654;28;84526;-43
2021/12/30 12:52:47;;;;;;;;;;;5.70;80.10;;;;;;5044575;28;80262;-44
2021/12/30 12:55:15;;;;;;;;;;;5.70;80.00;;;;;;5044909;28;82296;-45
2021/12/30 12:57:41;;;;;;;;;;;5.70;80.90;;;;;;5044344;28;83092;-45
2021/12/30 13:00:08;;;;;;;;;;;5.70;81.10;;;;;;5044645;28;80284;-44
2021/12/30 13:02:33;;;;;;;;;;;5.70;81.60;;;;;;5047255;27;80070;-44
2021/12/30 13:05:11;;;;;;;;;;;5.70;82.00;;;;;;5044494;28;80473;-44
2021/12/30 13:07:36;;;;;;;;;;;5.70;82.30;;;;;;5044584;28;82048;-44
2021/12/30 13:10:02;;;;;;;;;;;5.70;82.50;;;;;;5044213;28;83143;-45
2021/12/30 13:12:33;;;;;;;;;;;5.70;82.70;;;;;;5044187;28;80462;-44
2021/12/30 13:14:59;;;;;;;;;;;5.70;83.00;;;;;;5044519;27;82160;-45
2021/12/30 13:17:24;;;;;;;;;;;5.70;83.00;;;;;;5044051;28;82927;-44
2021/12/30 13:19:50;;;;;;;;;;;5.70;82.80;;;;;;5044332;28;80354;-44
2021/12/30 13:22:17;;;;;;;;;;;5.70;83.10;;;;;;5043983;27;81301;-44
2021/12/30 13:24:47;;;;;;;;;;;5.70;83.10;;;;;;5046832;28;82564;-44
2021/12/30 13:27:12;;;;;;;;;;;5.70;82.90;;;;;;5044163;27;82526;-44
2021/12/30 13:29:39;;;;;;;;;;;5.70;82.80;;;;;;5044061;28;82727;-44
2021/12/30 13:32:08;;;;;;;;;;;5.70;83.30;;;;;;5043889;28;80236;-44
2021/12/30 13:34:35;;;;;;;;;;;5.70;82.80;;;;;;5044304;28;81180;-44
2021/12/30 13:37:14;;;;;;;;;;;5.70;82.80;;;;;;5043929;28;82714;-44
2021/12/30 13:39:40;;;;;;;;;;;5.70;83.00;;;;;;5043767;28;80345;-44
2021/12/30 13:42:10;;;;;;;;;;;5.70;82.90;;;;;;5043408;27;82006;-44
2021/12/30 13:44:37;;;;;;;;;;;5.70;83.00;;;;;;5043792;28;82803;-46
2021/12/30 13:47:17;;;;;;;;;;;5.70;82.80;;;;;;5046901;28;80365;-44
2021/12/30 13:49:43;;;;;;;;;;;5.70;82.70;;;;;;5043602;28;82658;-44
2021/12/30 13:52:09;;;;;;;;;;;5.70;82.50;;;;;;5041521;28;80438;-44
2021/12/30 13:54:34;;;;;;;;;;;5.70;82.70;;;;;;5029994;28;82261;-44
2021/12/30 13:57:00;;;;;;;;;;;5.70;82.50;;;;;;5030211;28;82543;-44
2021/12/30 13:59:29;;;;;;;;;;;5.70;82.40;;;;;;5030019;28;80328;-44
2021/12/30 14:01:56;;;;;;;;;;;5.70;82.40;;;;;;5030263;28;80723;-44
2021/12/30 14:04:28;;;;;;;;;;;5.70;82.50;;;;;;5030073;28;83223;-48
2021/12/30 14:06:57;;;;;;;;;;;5.70;82.50;;;;;;5029840;28;80198;-43
2021/12/30 14:09:23;;;;;;;;;;;5.70;81.10;;;;;;5032595;28;82090;-42
2021/12/30 14:11:51;;;;;;;;;;;5.70;82.10;;;;;;5030188;28;80352;-42
2021/12/30 14:14:17;;;;;;;;;;;6.00;84.40;;;;;;5030006;28;81065;-41
2021/12/30 14:16:44;;;;;;;;;;;6.70;82.80;;;;;;5029920;28;81593;-57
2021/12/30 14:19:10;;;;;;;;;;;7.20;81.90;;;;;;5030056;28;80245;-49
2021/12/30 14:21:37;;;;;;;;;;;7.70;80.80;;;;;;5029705;28;81228;-45
2021/12/30 14:24:10;;;;;;;;;;;8.20;79.80;;;;;;5029811;28;81377;-42
2021/12/30 14:27:32;;;;;;;;;;;8.70;77.90;;;;;;5046150;28;80204;-46
2021/12/30 14:30:10;;;;;;;;;;;9.00;77.40;;;;;;5044628;28;80306;-43
2021/12/30 14:32:36;;;;;;;;;;;9.30;77.10;;;;;;5044632;28;83083;-45
2021/12/30 14:35:05;;;;;;;;;;;9.60;76.20;;;;;;5044699;28;82730;-43